sensor_id;sensor_type;location;lat;lon;timestamp;pressure;altitude;pressure_sealevel;temperature;humidity
8059;BME280;4072;42.668;23.396;2023-11-22T00:02:09;94420.34;;;7.46;100.00
8059;BME280;4072;42.668;23.396;2023-11-22T00:04:37;94405.91;;;7.62;100.00
8059;BME280;4072;42.668;23.396;2023-11-22T00:07:05;94426.56;;;7.65;100.00
8059;BME280;4072;42.668;23.396;2023-11-22T00:09:35;94422.63;;;7.57;100.00
8059;BME280;4072;42.668;23.396;2023-11-22T00:12:06;94410.41;;;7.65;100.00
8059;BME280;4072;42.668;23.396;2023-11-22T00:14:35;94421.78;;;7.69;100.00
8059;BME280;4072;42.668;23.396;2023-11-22T00:17:03;94400.56;;;7.71;100.00
8059;BME280;4072;42.668;23.396;2023-11-22T00:19:32;94397.72;;;7.74;100.00
8059;BME280;4072;42.668;23.396;2023-11-22T00:22:01;94335.19;;;7.22;100.00
8059;BME280;4072;42.668;23.396;2023-11-22T00:24:36;94411.78;;;7.69;100.00
8059;BME280;4072;42.668;23.396;2023-11-22T00:27:06;94401.94;;;7.84;100.00
8059;BME280;4072;42.668;23.396;2023-11-22T00:29:34;94346.63;;;7.44;100.00
8059;BME280;4072;42.668;23.396;2023-11-22T00:32:02;94392.56;;;7.98;100.00
8059;BME280;4072;42.668;23.396;2023-11-22T00:34:31;94397.31;;;7.85;100.00
8059;BME280;4072;42.668;23.396;2023-11-22T00:36:59;94393.44;;;7.86;100.00
8059;BME280;4072;42.668;23.396;2023-11-22T00:39:27;94391.72;;;7.70;100.00
8059;BME280;4072;42.668;23.396;2023-11-22T00:41:56;94410.41;;;7.65;100.00
8059;BME280;4072;42.668;23.396;2023-11-22T00:44:25;94392.50;;;7.71;100.00
8059;BME280;4072;42.668;23.396;2023-11-22T00:46:53;94410.47;;;7.83;100.00
8059;BME280;4072;42.668;23.396;2023-11-22T00:49:22;94415.50;;;7.72;100.00
8059;BME280;4072;42.668;23.396;2023-11-22T00:51:50;94410.00;;;7.75;100.00
8059;BME280;4072;42.668;23.396;2023-11-22T00:54:19;94404.91;;;7.68;100.00
8059;BME280;4072;42.668;23.396;2023-11-22T00:56:47;94405.97;;;7.80;100.00
8059;BME280;4072;42.668;23.396;2023-11-22T00:59:15;94390.50;;;7.62;100.00
8059;BME280;4072;42.668;23.396;2023-11-22T01:01:46;94394.84;;;7.60;100.00
8059;BME280;4072;42.668;23.396;2023-11-22T01:04:15;94391.53;;;7.56;100.00
8059;BME280;4072;42.668;23.396;2023-11-22T01:06:43;94400.31;;;7.47;100.00
8059;BME280;4072;42.668;23.396;2023-11-22T01:09:11;94393.03;;;7.57;100.00
8059;BME280;4072;42.668;23.396;2023-11-22T01:11:40;94384.66;;;7.55;100.00
8059;BME280;4072;42.668;23.396;2023-11-22T01:14:09;94392.50;;;7.71;100.00
8059;BME280;4072;42.668;23.396;2023-11-22T01:16:37;94390.41;;;7.75;100.00
8059;BME280;4072;42.668;23.396;2023-11-22T01:19:07;94370.63;;;7.60;100.00
8059;BME280;4072;42.668;23.396;2023-11-22T01:21:35;94367.38;;;7.83;100.00
8059;BME280;4072;42.668;23.396;2023-11-22T01:24:04;94371.31;;;7.91;100.00
8059;BME280;4072;42.668;23.396;2023-11-22T01:26:32;94366.53;;;7.95;100.00
8059;BME280;4072;42.668;23.396;2023-11-22T01:29:03;94376.38;;;7.89;100.00
8059;BME280;4072;42.668;23.396;2023-11-22T01:31:32;94369.50;;;7.88;100.00
8059;BME280;4072;42.668;23.396;2023-11-22T01:34:00;94361.16;;;8.04;100.00
8059;BME280;4072;42.668;23.396;2023-11-22T01:36:29;94379.13;;;8.07;100.00
8059;BME280;4072;42.668;23.396;2023-11-22T01:38:58;94363.28;;;8.09;100.00
8059;BME280;4072;42.668;23.396;2023-11-22T01:41:26;94352.78;;;8.11;100.00
8059;BME280;4072;42.668;23.396;2023-11-22T01:43:59;94346.81;;;8.16;100.00
8059;BME280;4072;42.668;23.396;2023-11-22T01:46:27;94334.81;;;8.08;100.00
8059;BME280;4072;42.668;23.396;2023-11-22T01:48:55;94349.66;;;8.03;100.00
8059;BME280;4072;42.668;23.396;2023-11-22T01:51:25;94341.56;;;8.12;100.00
8059;BME280;4072;42.668;23.396;2023-11-22T01:53:56;94351.28;;;8.10;100.00
8059;BME280;4072;42.668;23.396;2023-11-22T01:56:26;94336.34;;;8.09;100.00
8059;BME280;4072;42.668;23.396;2023-11-22T01:58:56;94355.16;;;8.00;100.00
8059;BME280;4072;42.668;23.396;2023-11-22T02:01:27;94344.69;;;8.11;100.00
8059;BME280;4072;42.668;23.396;2023-11-22T02:03:55;94310.28;;;8.06;100.00
8059;BME280;4072;42.668;23.396;2023-11-22T02:06:24;94333.03;;;8.14;100.00
8059;BME280;4072;42.668;23.396;2023-11-22T02:08:52;94340.84;;;8.12;100.00
8059;BME280;4072;42.668;23.396;2023-11-22T02:11:22;94351.75;;;8.08;100.00
8059;BME280;4072;42.668;23.396;2023-11-22T02:13:51;94351.00;;;8.17;100.00
8059;BME280;4072;42.668;23.396;2023-11-22T02:16:19;94325.44;;;8.21;100.00
8059;BME280;4072;42.668;23.396;2023-11-22T02:18:49;94337.28;;;8.24;100.00
8059;BME280;4072;42.668;23.396;2023-11-22T02:21:17;94337.81;;;8.10;100.00
8059;BME280;4072;42.668;23.396;2023-11-22T02:23:48;94330.66;;;8.16;100.00
8059;BME280;4072;42.668;23.396;2023-11-22T02:26:17;94332.31;;;8.22;100.00
8059;BME280;4072;42.668;23.396;2023-11-22T02:28:46;94317.81;;;8.29;100.00
8059;BME280;4072;42.668;23.396;2023-11-22T02:31:15;94330.66;;;8.16;100.00
8059;BME280;4072;42.668;23.396;2023-11-22T02:33:43;94337.28;;;8.24;100.00
8059;BME280;4072;42.668;23.396;2023-11-22T02:36:12;94337.50;;;8.08;100.00
8059;BME280;4072;42.668;23.396;2023-11-22T02:38:40;94334.53;;;8.15;100.00
8059;BME280;4072;42.668;23.396;2023-11-22T02:41:11;94342.63;;;8.06;100.00
8059;BME280;4072;42.668;23.396;2023-11-22T02:43:41;94332.56;;;8.06;100.00
8059;BME280;4072;42.668;23.396;2023-11-22T02:46:09;94351.25;;;8.01;100.00
8059;BME280;4072;42.668;23.396;2023-11-22T02:48:37;94348.03;;;8.24;100.00
8059;BME280;4072;42.668;23.396;2023-11-22T02:51:06;94339.06;;;8.27;100.00
8059;BME280;4072;42.668;23.396;2023-11-22T02:53:34;94337.25;;;8.33;100.00
8059;BME280;4072;42.668;23.396;2023-11-22T02:56:04;94333.69;;;8.27;100.00
8059;BME280;4072;42.668;23.396;2023-11-22T02:58:34;94344.00;;;8.28;100.00
8059;BME280;4072;42.668;23.396;2023-11-22T03:01:02;94334.53;;;8.15;100.00
8059;BME280;4072;42.668;23.396;2023-11-22T03:03:31;94338.91;;;8.21;100.00
8059;BME280;4072;42.668;23.396;2023-11-22T03:06:00;94343.81;;;8.14;100.00
8059;BME280;4072;42.668;23.396;2023-11-22T03:08:28;94341.28;;;8.19;100.00
8059;BME280;4072;42.668;23.396;2023-11-22T03:10:56;94324.34;;;8.01;100.00
8059;BME280;4072;42.668;23.396;2023-11-22T03:13:26;94345.28;;;7.97;100.00
8059;BME280;4072;42.668;23.396;2023-11-22T03:15:56;94327.31;;;7.85;100.00
8059;BME280;4072;42.668;23.396;2023-11-22T03:18:25;94353.06;;;8.04;100.00
8059;BME280;4072;42.668;23.396;2023-11-22T03:20:53;94350.94;;;7.90;100.00
8059;BME280;4072;42.668;23.396;2023-11-22T03:23:21;94343.47;;;7.94;100.00
8059;BME280;4072;42.668;23.396;2023-11-22T03:25:50;94352.50;;;8.09;100.00
8059;BME280;4072;42.668;23.396;2023-11-22T03:28:18;94353.09;;;8.13;100.00
8059;BME280;4072;42.668;23.396;2023-11-22T03:30:46;94353.09;;;8.13;100.00
8059;BME280;4072;42.668;23.396;2023-11-22T03:33:16;94357.28;;;8.05;100.00
8059;BME280;4072;42.668;23.396;2023-11-22T03:35:44;94365.97;;;8.18;100.00
8059;BME280;4072;42.668;23.396;2023-11-22T03:38:12;94347.75;;;8.31;100.00
8059;BME280;4072;42.668;23.396;2023-11-22T03:40:40;94340.28;;;8.44;100.00
8059;BME280;4072;42.668;23.396;2023-11-22T03:43:09;94341.75;;;8.27;100.00
8059;BME280;4072;42.668;23.396;2023-11-22T03:45:37;94344.00;;;8.28;100.00
8059;BME280;4072;42.668;23.396;2023-11-22T03:48:06;94350.13;;;8.47;100.00
8059;BME280;4072;42.668;23.396;2023-11-22T03:50:36;94345.03;;;8.40;100.00
8059;BME280;4072;42.668;23.396;2023-11-22T03:53:04;94344.16;;;8.25;100.00
8059;BME280;4072;42.668;23.396;2023-11-22T03:55:32;94324.53;;;8.33;100.00
8059;BME280;4072;42.668;23.396;2023-11-22T03:58:00;94333.22;;;8.28;100.00
8059;BME280;4072;42.668;23.396;2023-11-22T04:00:29;94332.19;;;8.26;100.00
8059;BME280;4072;42.668;23.396;2023-11-22T04:02:59;94333.22;;;8.28;100.00
8059;BME280;4072;42.668;23.396;2023-11-22T04:05:29;94323.16;;;8.11;100.00
8059;BME280;4072;42.668;23.396;2023-11-22T04:07:59;94348.28;;;8.08;100.00
8059;BME280;4072;42.668;23.396;2023-11-22T04:10:30;94359.09;;;8.17;100.00
8059;BME280;4072;42.668;23.396;2023-11-22T04:12:58;94340.19;;;8.08;100.00
8059;BME280;4072;42.668;23.396;2023-11-22T04:15:26;94365.06;;;8.21;100.00
8059;BME280;4072;42.668;23.396;2023-11-22T04:17:55;94375.09;;;8.20;100.00
8059;BME280;4072;42.668;23.396;2023-11-22T04:20:23;94369.53;;;8.15;100.00
8059;BME280;4072;42.668;23.396;2023-11-22T04:22:51;94366.25;;;8.11;100.00
8059;BME280;4072;42.668;23.396;2023-11-22T04:25:21;94380.06;;;8.22;100.00
8059;BME280;4072;42.668;23.396;2023-11-22T04:27:50;94366.38;;;7.89;100.00
8059;BME280;4072;42.668;23.396;2023-11-22T04:30:18;94400.38;;;8.05;100.00
8059;BME280;4072;42.668;23.396;2023-11-22T04:32:46;94401.09;;;8.05;100.00
8059;BME280;4072;42.668;23.396;2023-11-22T04:35:15;94404.53;;;7.97;100.00
8059;BME280;4072;42.668;23.396;2023-11-22T04:37:43;94398.41;;;7.96;100.00
8059;BME280;4072;42.668;23.396;2023-11-22T04:40:14;94406.00;;;7.89;100.00
8059;BME280;4072;42.668;23.396;2023-11-22T04:42:44;94395.06;;;7.83;100.00
8059;BME280;4072;42.668;23.396;2023-11-22T04:45:12;94397.31;;;7.85;100.00
8059;BME280;4072;42.668;23.396;2023-11-22T04:47:40;94374.25;;;7.66;100.00
8059;BME280;4072;42.668;23.396;2023-11-22T04:50:09;94404.47;;;7.79;100.00
8059;BME280;4072;42.668;23.396;2023-11-22T04:52:37;94415.25;;;7.79;100.00
8059;BME280;4072;42.668;23.396;2023-11-22T04:55:06;94410.13;;;7.72;100.00
8059;BME280;4072;42.668;23.396;2023-11-22T04:57:35;94416.28;;;7.72;100.00
8059;BME280;4072;42.668;23.396;2023-11-22T05:00:06;94429.91;;;7.87;100.00
8059;BME280;4072;42.668;23.396;2023-11-22T05:02:34;94428.75;;;7.88;100.00
8059;BME280;4072;42.668;23.396;2023-11-22T05:05:03;94451.66;;;7.92;100.00
8059;BME280;4072;42.668;23.396;2023-11-22T05:07:31;94442.94;;;7.88;100.00
8059;BME280;4072;42.668;23.396;2023-11-22T05:09:59;94451.50;;;7.96;100.00
8059;BME280;4072;42.668;23.396;2023-11-22T05:12:29;94465.03;;;8.05;100.00
8059;BME280;4072;42.668;23.396;2023-11-22T05:14:58;94451.84;;;8.07;100.00
8059;BME280;4072;42.668;23.396;2023-11-22T05:17:27;94471.63;;;8.13;100.00
8059;BME280;4072;42.668;23.396;2023-11-22T05:19:56;94467.72;;;8.14;100.00
8059;BME280;4072;42.668;23.396;2023-11-22T05:22:24;94468.00;;;8.07;100.00
8059;BME280;4072;42.668;23.396;2023-11-22T05:24:52;94466.84;;;8.17;100.00
8059;BME280;4072;42.668;23.396;2023-11-22T05:27:20;94468.59;;;8.11;100.00
8059;BME280;4072;42.668;23.396;2023-11-22T05:29:48;94466.50;;;8.06;100.00
8059;BME280;4072;42.668;23.396;2023-11-22T05:32:21;94433.75;;;7.68;100.00
8059;BME280;4072;42.668;23.396;2023-11-22T05:34:51;94505.97;;;8.00;100.00
8059;BME280;4072;42.668;23.396;2023-11-22T05:37:20;94505.22;;;7.99;100.00
8059;BME280;4072;42.668;23.396;2023-11-22T05:39:51;94488.06;;;8.06;100.00
8059;BME280;4072;42.668;23.396;2023-11-22T05:42:19;94488.94;;;8.03;100.00
8059;BME280;4072;42.668;23.396;2023-11-22T05:44:47;94500.25;;;7.89;100.00
8059;BME280;4072;42.668;23.396;2023-11-22T05:47:16;94513.41;;;7.87;100.00
8059;BME280;4072;42.668;23.396;2023-11-22T05:49:45;94509.53;;;7.88;100.00
8059;BME280;4072;42.668;23.396;2023-11-22T05:52:14;94509.00;;;8.02;100.00
8059;BME280;4072;42.668;23.396;2023-11-22T05:54:43;94504.50;;;7.99;100.00
8059;BME280;4072;42.668;23.396;2023-11-22T05:57:12;94479.91;;;7.88;100.00
8059;BME280;4072;42.668;23.396;2023-11-22T05:59:41;94526.72;;;8.21;100.00
8059;BME280;4072;42.668;23.396;2023-11-22T06:02:10;94519.88;;;8.29;100.00
8059;BME280;4072;42.668;23.396;2023-11-22T06:04:39;94519.34;;;8.12;100.00
8059;BME280;4072;42.668;23.396;2023-11-22T06:07:08;94529.59;;;8.26;100.00
8059;BME280;4072;42.668;23.396;2023-11-22T06:09:40;94515.94;;;8.21;100.00
8059;BME280;4072;42.668;23.396;2023-11-22T06:12:08;94532.97;;;8.48;100.00
8059;BME280;4072;42.668;23.396;2023-11-22T06:14:36;94542.69;;;8.46;100.00
8059;BME280;4072;42.668;23.396;2023-11-22T06:17:05;94548.09;;;8.46;100.00
8059;BME280;4072;42.668;23.396;2023-11-22T06:19:33;94538.53;;;8.54;100.00
8059;BME280;4072;42.668;23.396;2023-11-22T06:22:01;94541.22;;;8.45;100.00
8059;BME280;4072;42.668;23.396;2023-11-22T06:24:29;94546.28;;;8.43;100.00
8059;BME280;4072;42.668;23.396;2023-11-22T06:26:59;94557.50;;;8.41;100.00
8059;BME280;4072;42.668;23.396;2023-11-22T06:29:28;94569.81;;;8.42;100.00
8059;BME280;4072;42.668;23.396;2023-11-22T06:31:56;94572.00;;;8.35;100.00
8059;BME280;4072;42.668;23.396;2023-11-22T06:34:25;94567.59;;;8.59;100.00
8059;BME280;4072;42.668;23.396;2023-11-22T06:36:53;94556.81;;;8.68;100.00
8059;BME280;4072;42.668;23.396;2023-11-22T06:39:21;94566.16;;;8.76;100.00
8059;BME280;4072;42.668;23.396;2023-11-22T06:41:49;94558.91;;;8.64;100.00
8059;BME280;4072;42.668;23.396;2023-11-22T06:44:19;94564.63;;;8.75;100.00
8059;BME280;4072;42.668;23.396;2023-11-22T06:46:47;94541.44;;;8.77;100.00
8059;BME280;4072;42.668;23.396;2023-11-22T06:49:15;94561.66;;;8.73;100.00
8059;BME280;4072;42.668;23.396;2023-11-22T06:51:44;94581.13;;;8.86;100.00
8059;BME280;4072;42.668;23.396;2023-11-22T06:54:12;94541.06;;;8.48;100.00
8059;BME280;4072;42.668;23.396;2023-11-22T06:56:40;94599.72;;;8.84;100.00
8059;BME280;4072;42.668;23.396;2023-11-22T06:59:08;94602.59;;;8.89;100.00
8059;BME280;4072;42.668;23.396;2023-11-22T07:01:38;94596.88;;;8.78;100.00
8059;BME280;4072;42.668;23.396;2023-11-22T07:04:07;94598.06;;;8.86;100.00
8059;BME280;4072;42.668;23.396;2023-11-22T07:06:35;94596.16;;;8.96;100.00
8059;BME280;4072;42.668;23.396;2023-11-22T07:09:04;94600.94;;;8.92;100.00
8059;BME280;4072;42.668;23.396;2023-11-22T07:11:36;94611.44;;;8.90;100.00
8059;BME280;4072;42.668;23.396;2023-11-22T07:14:05;94609.59;;;8.78;100.00
8059;BME280;4072;42.668;23.396;2023-11-22T07:16:33;94580.47;;;8.64;100.00
8059;BME280;4072;42.668;23.396;2023-11-22T07:19:04;94611.44;;;8.90;100.00
8059;BME280;4072;42.668;23.396;2023-11-22T07:21:34;94601.25;;;9.03;100.00
8059;BME280;4072;42.668;23.396;2023-11-22T07:24:05;94595.53;;;8.92;100.00
8059;BME280;4072;42.668;23.396;2023-11-22T07:26:34;94608.00;;;9.07;100.00
8059;BME280;4072;42.668;23.396;2023-11-22T07:29:02;94604.41;;;9.01;100.00
8059;BME280;4072;42.668;23.396;2023-11-22T07:31:30;94607.53;;;9.00;100.00
8059;BME280;4072;42.668;23.396;2023-11-22T07:33:58;94610.84;;;8.95;100.00
8059;BME280;4072;42.668;23.396;2023-11-22T07:36:30;94610.28;;;9.18;100.00
8059;BME280;4072;42.668;23.396;2023-11-22T07:38:58;94612.34;;;9.14;100.00
8059;BME280;4072;42.668;23.396;2023-11-22T07:41:26;94616.25;;;9.13;100.00
8059;BME280;4072;42.668;23.396;2023-11-22T07:43:54;94621.25;;;9.42;100.00
8059;BME280;4072;42.668;23.396;2023-11-22T07:46:22;94632.66;;;9.46;100.00
8059;BME280;4072;42.668;23.396;2023-11-22T07:48:51;94630.25;;;9.57;100.00
8059;BME280;4072;42.668;23.396;2023-11-22T07:51:19;94564.72;;;9.11;100.00
8059;BME280;4072;42.668;23.396;2023-11-22T07:53:49;94614.50;;;9.37;100.00
8059;BME280;4072;42.668;23.396;2023-11-22T07:56:17;94625.28;;;9.37;100.00
8059;BME280;4072;42.668;23.396;2023-11-22T07:58:46;94628.00;;;9.46;100.00
8059;BME280;4072;42.668;23.396;2023-11-22T08:01:15;94628.44;;;9.54;100.00
8059;BME280;4072;42.668;23.396;2023-11-22T08:03:45;94642.13;;;9.50;100.00
8059;BME280;4072;42.668;23.396;2023-11-22T08:06:15;94636.41;;;9.48;100.00
8059;BME280;4072;42.668;23.396;2023-11-22T08:08:44;94635.50;;;9.51;100.00
8059;BME280;4072;42.668;23.396;2023-11-22T08:11:15;94632.06;;;9.60;100.00
8059;BME280;4072;42.668;23.396;2023-11-22T08:13:44;94637.00;;;9.52;100.00
8059;BME280;4072;42.668;23.396;2023-11-22T08:16:15;94628.31;;;9.48;100.00
8059;BME280;4072;42.668;23.396;2023-11-22T08:18:43;94616.28;;;9.31;100.00
8059;BME280;4072;42.668;23.396;2023-11-22T08:21:11;94643.59;;;9.42;100.00
8059;BME280;4072;42.668;23.396;2023-11-22T08:23:39;94648.69;;;9.49;100.00
8059;BME280;4072;42.668;23.396;2023-11-22T08:26:08;94643.75;;;9.57;100.00
8059;BME280;4072;42.668;23.396;2023-11-22T08:28:40;94594.69;;;9.31;100.00
8059;BME280;4072;42.668;23.396;2023-11-22T08:31:08;94654.41;;;9.60;100.00
8059;BME280;4072;42.668;23.396;2023-11-22T08:33:37;94648.53;;;9.80;100.00
8059;BME280;4072;42.668;23.396;2023-11-22T08:36:08;94646.91;;;9.82;100.00
8059;BME280;4072;42.668;23.396;2023-11-22T08:38:38;94647.78;;;9.88;100.00
8059;BME280;4072;42.668;23.396;2023-11-22T08:41:08;94610.16;;;9.67;100.00
8059;BME280;4072;42.668;23.396;2023-11-22T08:43:41;94645.72;;;9.83;100.00
8059;BME280;4072;42.668;23.396;2023-11-22T08:46:09;94662.69;;;9.66;100.00
8059;BME280;4072;42.668;23.396;2023-11-22T08:48:41;94661.00;;;9.50;100.00
8059;BME280;4072;42.668;23.396;2023-11-22T08:51:10;94666.09;;;9.39;100.00
8059;BME280;4072;42.668;23.396;2023-11-22T08:53:39;94660.34;;;9.28;100.00
8059;BME280;4072;42.668;23.396;2023-11-22T08:56:08;94651.50;;;9.19;100.00
8059;BME280;4072;42.668;23.396;2023-11-22T08:58:37;94650.28;;;9.11;100.00
8059;BME280;4072;42.668;23.396;2023-11-22T09:01:06;94666.31;;;9.14;100.00
8059;BME280;4072;42.668;23.396;2023-11-22T09:03:35;94658.50;;;9.07;100.00
8059;BME280;4072;42.668;23.396;2023-11-22T09:06:05;94663.47;;;9.08;100.00
8059;BME280;4072;42.668;23.396;2023-11-22T09:08:35;94673.09;;;9.19;100.00
8059;BME280;4072;42.668;23.396;2023-11-22T09:11:03;94672.06;;;9.25;100.00
8059;BME280;4072;42.668;23.396;2023-11-22T09:13:33;94680.75;;;9.20;100.00
8059;BME280;4072;42.668;23.396;2023-11-22T09:16:04;94669.94;;;9.20;100.00
8059;BME280;4072;42.668;23.396;2023-11-22T09:18:36;94673.53;;;9.08;100.00
8059;BME280;4072;42.668;23.396;2023-11-22T09:21:05;94684.94;;;9.12;100.00
8059;BME280;4072;42.668;23.396;2023-11-22T09:23:43;94678.03;;;9.11;100.00
8059;BME280;4072;42.668;23.396;2023-11-22T09:26:11;94685.81;;;9.09;100.00
8059;BME280;4072;42.668;23.396;2023-11-22T09:28:41;94692.53;;;9.04;100.00
8059;BME280;4072;42.668;23.396;2023-11-22T09:31:09;94696.44;;;9.03;100.00
8059;BME280;4072;42.668;23.396;2023-11-22T09:33:42;94700.16;;;8.97;100.00
8059;BME280;4072;42.668;23.396;2023-11-22T09:36:10;94710.19;;;8.96;100.00
8059;BME280;4072;42.668;23.396;2023-11-22T09:38:39;94690.66;;;8.83;100.00
8059;BME280;4072;42.668;23.396;2023-11-22T09:41:07;94708.56;;;8.99;100.00
8059;BME280;4072;42.668;23.396;2023-11-22T09:43:36;94700.78;;;9.01;100.00
8059;BME280;4072;42.668;23.396;2023-11-22T09:46:07;94701.34;;;8.96;100.00
8059;BME280;4072;42.668;23.396;2023-11-22T09:48:41;94692.47;;;8.86;100.00
8059;BME280;4072;42.668;23.396;2023-11-22T09:51:17;94704.94;;;8.93;100.00
8059;BME280;4072;42.668;23.396;2023-11-22T09:53:53;94577.56;;;8.10;100.00
8059;BME280;4072;42.668;23.396;2023-11-22T09:56:24;94695.06;;;8.90;100.00
8059;BME280;4072;42.668;23.396;2023-11-22T09:58:54;94695.66;;;8.94;100.00
8059;BME280;4072;42.668;23.396;2023-11-22T10:01:24;94688.75;;;8.93;100.00
8059;BME280;4072;42.668;23.396;2023-11-22T10:03:56;94705.56;;;8.97;100.00
8059;BME280;4072;42.668;23.396;2023-11-22T10:06:25;94708.00;;;9.04;100.00
8059;BME280;4072;42.668;23.396;2023-11-22T10:08:57;94695.06;;;8.90;100.00
8059;BME280;4072;42.668;23.396;2023-11-22T10:11:25;94703.09;;;8.81;100.00
8059;BME280;4072;42.668;23.396;2023-11-22T10:13:55;94702.81;;;8.79;100.00
8059;BME280;4072;42.668;23.396;2023-11-22T10:16:24;94687.78;;;8.78;100.00
8059;BME280;4072;42.668;23.396;2023-11-22T10:18:51;94692.78;;;8.88;100.00
8059;BME280;4072;42.668;23.396;2023-11-22T10:21:23;94669.25;;;8.89;100.00
8059;BME280;4072;42.668;23.396;2023-11-22T10:23:53;94685.81;;;9.09;100.00
8059;BME280;4072;42.668;23.396;2023-11-22T10:26:23;94689.44;;;9.15;100.00
8059;BME280;4072;42.668;23.396;2023-11-22T10:28:54;94679.69;;;9.27;100.00
8059;BME280;4072;42.668;23.396;2023-11-22T10:31:24;94696.25;;;9.56;100.00
8059;BME280;4072;42.668;23.396;2023-11-22T10:33:53;94619.09;;;9.00;100.00
8059;BME280;4072;42.668;23.396;2023-11-22T10:36:23;94690.88;;;9.74;100.00
8059;BME280;4072;42.668;23.396;2023-11-22T10:38:52;94694.94;;;9.87;100.00
8059;BME280;4072;42.668;23.396;2023-11-22T10:41:22;94695.69;;;9.88;100.00
8059;BME280;4072;42.668;23.396;2023-11-22T10:43:52;94694.47;;;9.80;100.00
8059;BME280;4072;42.668;23.396;2023-11-22T10:46:27;94689.69;;;9.66;100.00
8059;BME280;4072;42.668;23.396;2023-11-22T10:48:56;94700.03;;;9.76;100.00
8059;BME280;4072;42.668;23.396;2023-11-22T10:51:30;94665.50;;;9.44;100.00
8059;BME280;4072;42.668;23.396;2023-11-22T10:54:00;94699.44;;;9.72;100.00
8059;BME280;4072;42.668;23.396;2023-11-22T10:56:36;94702.00;;;9.85;100.00
8059;BME280;4072;42.668;23.396;2023-11-22T10:59:10;94700.03;;;9.94;100.00
8059;BME280;4072;42.668;23.396;2023-11-22T11:01:44;94698.81;;;9.95;100.00
8059;BME280;4072;42.668;23.396;2023-11-22T11:04:19;94694.50;;;9.98;100.00
8059;BME280;4072;42.668;23.396;2023-11-22T11:06:51;94682.63;;;10.04;100.00
8059;BME280;4072;42.668;23.396;2023-11-22T11:09:22;94688.78;;;10.23;100.00
8059;BME280;4072;42.668;23.396;2023-11-22T11:11:53;94613.91;;;9.69;100.00
8059;BME280;4072;42.668;23.396;2023-11-22T11:14:23;94683.53;;;10.01;100.00
8059;BME280;4072;42.668;23.396;2023-11-22T11:16:52;94699.47;;;10.08;100.00
8059;BME280;4072;42.668;23.396;2023-11-22T11:19:21;94671.22;;;9.91;100.00
8059;BME280;4072;42.668;23.396;2023-11-22T11:21:52;94705.75;;;10.23;100.00
8059;BME280;4072;42.668;23.396;2023-11-22T11:24:20;94692.38;;;10.11;100.00
8059;BME280;4072;42.668;23.396;2023-11-22T11:26:49;94699.47;;;10.08;100.00
8059;BME280;4072;42.668;23.396;2023-11-22T11:29:32;94684.72;;;10.00;100.00
8059;BME280;4072;42.668;23.396;2023-11-22T11:32:02;94676.63;;;10.00;100.00
8059;BME280;4072;42.668;23.396;2023-11-22T11:34:31;94687.88;;;9.99;100.00
8059;BME280;4072;42.668;23.396;2023-11-22T11:37:00;94693.13;;;9.93;100.00
8059;BME280;4072;42.668;23.396;2023-11-22T11:39:30;94691.63;;;9.92;100.00
8059;BME280;4072;42.668;23.396;2023-11-22T11:42:09;94690.72;;;9.95;100.00
8059;BME280;4072;42.668;23.396;2023-11-22T11:44:51;94691.94;;;10.03;100.00
8059;BME280;4072;42.668;23.396;2023-11-22T11:47:30;94682.91;;;9.97;100.00
8059;BME280;4072;42.668;23.396;2023-11-22T11:49:58;94684.09;;;10.05;100.00
8059;BME280;4072;42.668;23.396;2023-11-22T11:52:29;94694.03;;;10.26;100.00
8059;BME280;4072;42.668;23.396;2023-11-22T11:54:58;94695.66;;;10.33;100.00
8059;BME280;4072;42.668;23.396;2023-11-22T11:57:30;94689.81;;;10.34;100.00
8059;BME280;4072;42.668;23.396;2023-11-22T11:59:59;94699.13;;;10.42;100.00
8059;BME280;4072;42.668;23.396;2023-11-22T12:02:28;94685.88;;;10.53;100.00
8059;BME280;4072;42.668;23.396;2023-11-22T12:04:57;94687.69;;;10.56;100.00
8059;BME280;4072;42.668;23.396;2023-11-22T12:07:25;94665.19;;;10.32;100.00
8059;BME280;4072;42.668;23.396;2023-11-22T12:09:55;94703.75;;;10.51;100.00
8059;BME280;4072;42.668;23.396;2023-11-22T12:12:24;94689.78;;;10.52;100.00
8059;BME280;4072;42.668;23.396;2023-11-22T12:14:52;94706.03;;;10.52;100.00
8059;BME280;4072;42.668;23.396;2023-11-22T12:17:22;94710.81;;;10.48;100.00
8059;BME280;4072;42.668;23.396;2023-11-22T12:19:52;94717.88;;;10.46;100.00
8059;BME280;4072;42.668;23.396;2023-11-22T12:22:20;94723.09;;;10.67;100.00
8059;BME280;4072;42.668;23.396;2023-11-22T12:24:49;94725.34;;;10.69;100.00
8059;BME280;4072;42.668;23.396;2023-11-22T12:27:20;94725.09;;;10.58;100.00
8059;BME280;4072;42.668;23.396;2023-11-22T12:29:49;94722.53;;;10.54;100.00
8059;BME280;4072;42.668;23.396;2023-11-22T12:32:23;94712.59;;;10.51;100.00
8059;BME280;4072;42.668;23.396;2023-11-22T12:34:51;94713.50;;;10.48;100.00
8059;BME280;4072;42.668;23.396;2023-11-22T12:37:20;94721.03;;;10.53;100.00
8059;BME280;4072;42.668;23.396;2023-11-22T12:39:49;94717.84;;;10.64;100.00
8059;BME280;4072;42.668;23.396;2023-11-22T12:42:20;94709.00;;;10.54;100.00
8059;BME280;4072;42.668;23.396;2023-11-22T12:44:49;94709.19;;;10.51;100.00
8059;BME280;4072;42.668;23.396;2023-11-22T12:47:31;94725.22;;;10.54;100.00
8059;BME280;4072;42.668;23.396;2023-11-22T12:50:02;94731.84;;;10.53;100.00
8059;BME280;4072;42.668;23.396;2023-11-22T12:52:32;94737.41;;;10.50;100.00
8059;BME280;4072;42.668;23.396;2023-11-22T12:55:00;94745.69;;;10.46;100.00
8059;BME280;4072;42.668;23.396;2023-11-22T12:57:30;94748.06;;;10.44;100.00
8059;BME280;4072;42.668;23.396;2023-11-22T12:59:59;94754.69;;;10.52;100.00
8059;BME280;4072;42.668;23.396;2023-11-22T13:02:28;94731.84;;;10.44;100.00
8059;BME280;4072;42.668;23.396;2023-11-22T13:04:58;94750.78;;;10.53;100.00
8059;BME280;4072;42.668;23.396;2023-11-22T13:07:26;94758.59;;;10.51;100.00
8059;BME280;4072;42.668;23.396;2023-11-22T13:09:55;94764.31;;;10.53;100.00
8059;BME280;4072;42.668;23.396;2023-11-22T13:12:24;94771.34;;;10.60;100.00
8059;BME280;4072;42.668;23.396;2023-11-22T13:14:53;94765.47;;;10.70;100.00
8059;BME280;4072;42.668;23.396;2023-11-22T13:17:22;94775.38;;;10.73;100.00
8059;BME280;4072;42.668;23.396;2023-11-22T13:19:50;94763.38;;;10.74;100.00
8059;BME280;4072;42.668;23.396;2023-11-22T13:22:18;94771.16;;;10.81;100.00